createdAt,value
2023-02-23T00:00:43.000Z,79.9
2023-02-23T00:01:55.000Z,79.9
2023-02-23T00:03:07.000Z,79.9
2023-02-23T00:04:19.000Z,79.9
2023-02-23T00:05:31.000Z,79.9
2023-02-23T00:06:44.000Z,79.9
2023-02-23T00:07:56.000Z,79.9
2023-02-23T00:09:08.000Z,79.9
2023-02-23T00:10:19.000Z,79.9
2023-02-23T00:11:31.000Z,79.9
2023-02-23T00:12:44.000Z,79.9
2023-02-23T00:13:56.000Z,79.9
2023-02-23T00:15:08.000Z,79.9
2023-02-23T00:16:20.000Z,79.9
2023-02-23T00:17:32.000Z,79.9
2023-02-23T00:18:44.000Z,79.9
2023-02-23T00:19:57.000Z,79.9
2023-02-23T00:21:09.000Z,79.9
2023-02-23T00:22:21.000Z,79.9
2023-02-23T00:23:33.000Z,79.9
2023-02-23T00:24:45.000Z,79.9
2023-02-23T00:25:57.000Z,79.9
2023-02-23T00:27:09.000Z,79.9
2023-02-23T00:28:21.000Z,79.9
2023-02-23T00:29:33.000Z,79.9
2023-02-23T00:30:45.000Z,79.9
2023-02-23T00:31:58.000Z,79.9
2023-02-23T00:33:10.000Z,79.9
2023-02-23T00:34:22.000Z,79.9
2023-02-23T00:35:34.000Z,79.9
2023-02-23T00:36:46.000Z,79.9
2023-02-23T00:37:58.000Z,79.9
2023-02-23T00:39:11.000Z,79.9
2023-02-23T00:40:23.000Z,79.9
2023-02-23T00:41:34.000Z,79.9
2023-02-23T00:42:46.000Z,79.9
2023-02-23T00:43:58.000Z,79.9
2023-02-23T00:45:11.000Z,79.9
2023-02-23T00:46:23.000Z,79.9
2023-02-23T00:47:35.000Z,79.9
2023-02-23T00:48:47.000Z,79.9
2023-02-23T00:49:59.000Z,79.9
2023-02-23T00:51:11.000Z,79.9
2023-02-23T00:52:24.000Z,79.9
2023-02-23T00:53:36.000Z,79.9
2023-02-23T00:54:48.000Z,79.9
2023-02-23T00:56:00.000Z,79.9
2023-02-23T00:57:11.000Z,79.9
2023-02-23T00:58:24.000Z,79.9
2023-02-23T00:59:36.000Z,79.9
2023-02-23T01:00:48.000Z,79.9
2023-02-23T01:02:00.000Z,79.9
2023-02-23T01:03:12.000Z,79.9
2023-02-23T01:04:25.000Z,79.9
2023-02-23T01:05:37.000Z,79.9
2023-02-23T01:06:49.000Z,79.9
2023-02-23T01:08:01.000Z,79.9
2023-02-23T01:09:13.000Z,79.9
2023-02-23T01:10:25.000Z,79.9
2023-02-23T01:11:38.000Z,79.9
2023-02-23T01:12:49.000Z,79.9
2023-02-23T01:14:01.000Z,79.9
2023-02-23T01:15:13.000Z,79.9
2023-02-23T01:16:25.000Z,79.9
2023-02-23T01:17:38.000Z,79.9
2023-02-23T01:18:50.000Z,79.9
2023-02-23T01:20:22.610Z,79.9
2023-02-23T01:21:14.000Z,79.9
2023-02-23T01:22:26.000Z,79.9
2023-02-23T01:23:39.000Z,79.9
2023-02-23T01:24:51.000Z,79.9
2023-02-23T01:26:03.000Z,79.9
2023-02-23T01:27:15.000Z,79.9
2023-02-23T01:28:26.000Z,79.9
2023-02-23T01:29:38.000Z,79.9
2023-02-23T01:30:51.000Z,79.9
2023-02-23T01:32:03.000Z,79.9
2023-02-23T01:33:15.000Z,79.9
2023-02-23T01:34:27.000Z,79.9
2023-02-23T01:35:39.000Z,79.9
2023-02-23T01:36:52.000Z,79.9
2023-02-23T01:38:04.000Z,79.9
2023-02-23T01:39:16.000Z,79.9
2023-02-23T01:40:28.000Z,79.9
2023-02-23T01:41:40.000Z,79.9
2023-02-23T01:42:53.000Z,79.9
2023-02-23T01:44:04.000Z,79.9
2023-02-23T01:45:16.000Z,79.8
2023-02-23T01:46:28.000Z,79.9
2023-02-23T01:47:40.000Z,79.9
2023-02-23T01:48:52.000Z,79.8
2023-02-23T01:50:05.000Z,79.8
2023-02-23T01:51:17.000Z,79.8
2023-02-23T01:52:29.000Z,79.8
2023-02-23T01:53:41.000Z,79.8
2023-02-23T01:54:53.000Z,79.8
2023-02-23T01:56:06.000Z,79.8
2023-02-23T01:57:18.000Z,79.8
2023-02-23T01:58:30.000Z,79.8
2023-02-23T01:59:41.000Z,79.8
2023-02-23T02:00:53.000Z,79.8
2023-02-23T02:02:06.000Z,79.8
2023-02-23T02:03:18.000Z,79.8
2023-02-23T02:04:30.000Z,79.8
2023-02-23T02:05:42.000Z,79.8
2023-02-23T02:06:54.000Z,79.8
2023-02-23T02:08:06.000Z,79.8
2023-02-23T02:09:19.000Z,79.8
2023-02-23T02:10:31.000Z,79.8
2023-02-23T02:11:43.000Z,79.8
2023-02-23T02:12:55.000Z,79.8
2023-02-23T02:14:07.000Z,79.8
2023-02-23T02:15:19.000Z,79.8
2023-02-23T02:16:31.000Z,79.8
2023-02-23T02:17:43.000Z,79.8
2023-02-23T02:18:55.000Z,79.8
2023-02-23T02:20:07.000Z,79.8
2023-02-23T02:21:19.000Z,79.8
2023-02-23T02:22:52.358Z,79.8
2023-02-23T02:23:44.000Z,79.8
2023-02-23T02:24:56.000Z,79.7
2023-02-23T02:26:08.000Z,79.8
2023-02-23T02:27:20.000Z,79.7
2023-02-23T02:28:33.000Z,79.8
2023-02-23T02:29:45.000Z,79.7
2023-02-23T02:30:56.000Z,79.7
2023-02-23T02:32:08.000Z,79.7
2023-02-23T02:33:20.000Z,79.7
2023-02-23T02:34:33.000Z,79.8
2023-02-23T02:35:45.000Z,79.8
2023-02-23T02:36:57.000Z,79.8
2023-02-23T02:38:09.000Z,79.8
2023-02-23T02:39:21.000Z,79.8
2023-02-23T02:40:33.000Z,79.8
2023-02-23T02:41:46.000Z,79.8
2023-02-23T02:42:58.000Z,79.8
2023-02-23T02:44:10.000Z,79.8
2023-02-23T02:45:22.000Z,79.8
2023-02-23T02:46:33.000Z,79.8
2023-02-23T02:47:46.000Z,79.8
2023-02-23T02:48:58.000Z,79.8
2023-02-23T02:50:10.000Z,79.8
2023-02-23T02:51:22.000Z,79.8
2023-02-23T02:52:34.000Z,79.8
2023-02-23T02:53:47.000Z,79.8
2023-02-23T02:54:59.000Z,79.8
2023-02-23T02:56:11.000Z,79.8
2023-02-23T02:57:23.000Z,79.8
2023-02-23T02:58:35.000Z,79.8
2023-02-23T02:59:47.000Z,79.8
2023-02-23T03:01:00.000Z,79.8
2023-02-23T03:02:11.000Z,79.8
2023-02-23T03:03:23.000Z,79.8
2023-02-23T03:04:35.000Z,79.8
2023-02-23T03:05:47.000Z,79.8
2023-02-23T03:07:00.000Z,79.8
2023-02-23T03:08:12.000Z,79.8
2023-02-23T03:09:23.000Z,79.8
2023-02-23T03:10:35.000Z,79.8
2023-02-23T03:11:47.000Z,79.8
2023-02-23T03:13:00.000Z,79.8
2023-02-23T03:14:12.000Z,79.8
2023-02-23T03:15:24.000Z,79.8
2023-02-23T03:16:36.000Z,79.8
2023-02-23T03:17:48.000Z,79.8
2023-02-23T03:19:00.000Z,79.8
2023-02-23T03:20:13.000Z,79.7
2023-02-23T03:21:25.000Z,79.8
2023-02-23T03:22:37.000Z,79.7
2023-02-23T03:23:49.000Z,79.7
2023-02-23T03:25:00.000Z,79.7
2023-02-23T03:26:13.000Z,79.7
2023-02-23T03:27:25.000Z,79.7
2023-02-23T03:28:57.672Z,79.8
2023-02-23T03:29:49.000Z,79.7
2023-02-23T03:31:01.000Z,79.7
2023-02-23T03:32:14.000Z,79.7
2023-02-23T03:33:26.000Z,79.7
2023-02-23T03:34:38.000Z,79.7
2023-02-23T03:35:50.000Z,79.7
2023-02-23T03:37:02.000Z,79.7
2023-02-23T03:38:14.000Z,79.7
2023-02-23T03:39:27.000Z,79.7
2023-02-23T03:40:38.000Z,79.7
2023-02-23T03:41:50.000Z,79.7
2023-02-23T03:43:02.000Z,79.7
2023-02-23T03:44:14.000Z,79.7
2023-02-23T03:45:27.000Z,79.7
2023-02-23T03:46:39.000Z,79.7
2023-02-23T03:47:51.000Z,79.8
2023-02-23T03:49:03.000Z,79.8
2023-02-23T03:50:15.000Z,79.8
2023-02-23T03:51:27.000Z,79.8
2023-02-23T03:52:40.000Z,79.8
2023-02-23T03:53:52.000Z,79.7
2023-02-23T03:55:04.000Z,79.7
2023-02-23T03:56:15.000Z,79.7
2023-02-23T03:57:27.000Z,79.8
2023-02-23T03:58:40.000Z,79.8
2023-02-23T03:59:52.000Z,79.8
2023-02-23T04:01:04.000Z,79.8
2023-02-23T04:02:16.000Z,79.8
2023-02-23T04:03:28.000Z,79.8
2023-02-23T04:04:41.000Z,79.8
2023-02-23T04:05:53.000Z,79.8
2023-02-23T04:07:05.000Z,79.8
2023-02-23T04:08:17.000Z,79.8
2023-02-23T04:09:29.000Z,79.8
2023-02-23T04:10:41.000Z,79.8
2023-02-23T04:12:13.371Z,79.8
2023-02-23T04:13:05.000Z,79.8
2023-02-23T04:14:17.000Z,79.8
2023-02-23T04:15:29.000Z,79.8
2023-02-23T04:16:41.000Z,79.8
2023-02-23T04:17:54.000Z,79.8
2023-02-23T04:19:06.000Z,79.8
2023-02-23T04:20:18.000Z,79.8
2023-02-23T04:21:30.000Z,79.8
2023-02-23T04:22:42.000Z,79.8
2023-02-23T04:23:54.000Z,79.8
2023-02-23T04:25:07.000Z,79.8
2023-02-23T04:26:19.000Z,79.8
2023-02-23T04:27:30.000Z,79.8
2023-02-23T04:28:42.000Z,79.8
2023-02-23T04:29:54.000Z,79.8
2023-02-23T04:31:07.000Z,79.8
2023-02-23T04:32:19.000Z,79.8
2023-02-23T04:33:31.000Z,79.8
2023-02-23T04:34:43.000Z,79.8
2023-02-23T04:35:55.000Z,79.8
2023-02-23T04:37:07.000Z,79.8
2023-02-23T04:38:20.000Z,79.8
2023-02-23T04:39:32.000Z,79.8
2023-02-23T04:40:44.000Z,79.8
2023-02-23T04:41:56.000Z,79.8
2023-02-23T04:43:08.000Z,79.8
2023-02-23T04:44:20.000Z,79.8
2023-02-23T04:45:32.000Z,79.8
2023-02-23T04:46:44.000Z,79.8
2023-02-23T04:47:56.000Z,79.8
2023-02-23T04:49:08.000Z,79.8
2023-02-23T04:50:21.000Z,79.8
2023-02-23T04:51:33.000Z,79.8
2023-02-23T04:52:45.000Z,79.8
2023-02-23T04:53:57.000Z,79.8
2023-02-23T04:55:09.000Z,79.8
2023-02-23T04:56:21.000Z,79.8
2023-02-23T04:57:34.000Z,79.8
2023-02-23T04:58:46.000Z,79.8
2023-02-23T04:59:57.000Z,79.8
2023-02-23T05:01:09.000Z,79.8
2023-02-23T05:02:21.000Z,79.8
2023-02-23T05:03:34.000Z,79.8
2023-02-23T05:04:46.000Z,79.8
2023-02-23T05:05:58.000Z,79.8
2023-02-23T05:07:10.000Z,79.9
2023-02-23T05:08:22.000Z,79.8
2023-02-23T05:09:35.000Z,79.8
2023-02-23T05:10:47.000Z,79.9
2023-02-23T05:11:59.000Z,79.9
2023-02-23T05:13:11.000Z,79.9
2023-02-23T05:14:23.000Z,79.9
2023-02-23T05:15:34.000Z,79.9
2023-02-23T05:16:47.000Z,79.9
2023-02-23T05:17:59.000Z,79.9
2023-02-23T05:19:11.000Z,79.9
2023-02-23T05:20:23.000Z,79.9
2023-02-23T05:21:35.000Z,79.9
2023-02-23T05:22:48.000Z,79.9
2023-02-23T05:24:00.000Z,79.9
2023-02-23T05:25:12.000Z,79.9
2023-02-23T05:26:24.000Z,79.9
2023-02-23T05:27:36.000Z,79.9
2023-02-23T05:28:48.000Z,79.9
2023-02-23T05:30:01.000Z,79.9
2023-02-23T05:31:13.000Z,79.9
2023-02-23T05:32:24.000Z,79.9
2023-02-23T05:33:36.000Z,79.9
2023-02-23T05:34:48.000Z,80
2023-02-23T05:36:01.000Z,79.9
2023-02-23T05:37:13.000Z,80
2023-02-23T05:38:25.000Z,79.9
2023-02-23T05:39:57.932Z,80
2023-02-23T05:40:49.000Z,80
2023-02-23T05:42:02.000Z,79.9
2023-02-23T05:43:14.000Z,79.9
2023-02-23T05:44:26.000Z,80
2023-02-23T05:45:38.000Z,80
2023-02-23T05:46:50.000Z,80
2023-02-23T05:48:01.000Z,80
2023-02-23T05:49:14.000Z,80
2023-02-23T05:50:26.000Z,80
2023-02-23T05:51:38.000Z,80
2023-02-23T05:52:50.000Z,80
2023-02-23T05:54:02.000Z,80
2023-02-23T05:55:15.000Z,80
2023-02-23T05:56:27.000Z,79.9
2023-02-23T05:57:39.000Z,80
2023-02-23T05:58:51.000Z,79.9
2023-02-23T06:00:03.000Z,79.9
2023-02-23T06:01:15.000Z,80
2023-02-23T06:02:28.000Z,79.9
2023-02-23T06:03:39.000Z,79.9
2023-02-23T06:04:51.000Z,79.9
2023-02-23T06:06:03.000Z,79.9
2023-02-23T06:07:15.000Z,79.9
2023-02-23T06:08:28.000Z,79.9
2023-02-23T06:09:40.000Z,79.9
2023-02-23T06:10:52.000Z,79.9
2023-02-23T06:12:04.000Z,79.9
2023-02-23T06:13:16.000Z,79.9
2023-02-23T06:14:29.000Z,79.9
2023-02-23T06:15:41.000Z,79.9
2023-02-23T06:16:53.000Z,79.9
2023-02-23T06:18:05.000Z,79.9
2023-02-23T06:19:16.000Z,79.9
2023-02-23T06:20:28.000Z,79.9
2023-02-23T06:21:41.000Z,79.9
2023-02-23T06:22:53.000Z,79.9
2023-02-23T06:24:05.000Z,79.9
2023-02-23T06:25:17.000Z,79.9
2023-02-23T06:26:29.000Z,79.9
2023-02-23T06:27:42.000Z,79.9
2023-02-23T06:28:54.000Z,79.9
2023-02-23T06:30:06.000Z,79.9
2023-02-23T06:31:18.000Z,79.9
2023-02-23T06:32:30.000Z,79.9
2023-02-23T06:33:42.000Z,79.9
2023-02-23T06:34:54.000Z,79.9
2023-02-23T06:36:06.000Z,79.9
2023-02-23T06:37:18.000Z,79.9
2023-02-23T06:38:30.000Z,79.9
2023-02-23T06:39:42.000Z,80
2023-02-23T06:40:55.000Z,79.9
2023-02-23T06:42:07.000Z,80
2023-02-23T06:43:19.000Z,79.9
2023-02-23T06:44:31.000Z,80
2023-02-23T06:45:43.000Z,79.9
2023-02-23T06:46:56.000Z,79.9
2023-02-23T06:48:08.000Z,79.9
2023-02-23T06:49:20.000Z,80
2023-02-23T06:50:31.000Z,80
2023-02-23T06:51:43.000Z,79.9
2023-02-23T06:52:55.000Z,79.9
2023-02-23T06:54:08.000Z,79.9
2023-02-23T06:55:20.000Z,79.9
2023-02-23T06:56:32.000Z,79.9
2023-02-23T06:57:44.000Z,79.9
2023-02-23T06:58:56.000Z,79.9
2023-02-23T07:00:09.000Z,79.9
2023-02-23T07:01:21.000Z,79.9
2023-02-23T07:02:33.000Z,79.9
2023-02-23T07:03:45.000Z,79.9
2023-02-23T07:04:57.000Z,79.9
2023-02-23T07:06:08.000Z,79.9
2023-02-23T07:07:21.000Z,79.9
2023-02-23T07:08:33.000Z,79.9
2023-02-23T07:09:45.000Z,79.9
2023-02-23T07:10:56.000Z,79.9
2023-02-23T07:12:08.000Z,79.9
2023-02-23T07:13:21.000Z,79.9
2023-02-23T07:14:33.000Z,79.9
2023-02-23T07:15:45.000Z,79.9
2023-02-23T07:16:57.000Z,79.9
2023-02-23T07:18:09.000Z,79.9
2023-02-23T07:19:22.017Z,79.9
2023-02-23T07:20:34.000Z,79.9
2023-02-23T07:21:46.000Z,79.9
2023-02-23T07:22:58.000Z,79.9
2023-02-23T07:24:10.000Z,79.9
2023-02-23T07:25:22.000Z,79.9
2023-02-23T07:26:34.000Z,79.9
2023-02-23T07:27:46.000Z,79.9
2023-02-23T07:28:58.000Z,79.9
2023-02-23T07:30:10.000Z,79.9
2023-02-23T07:31:22.000Z,79.9
2023-02-23T07:32:35.000Z,80
2023-02-23T07:33:47.000Z,80
2023-02-23T07:34:59.000Z,80
2023-02-23T07:36:11.000Z,80
2023-02-23T07:37:23.000Z,80
2023-02-23T07:38:35.000Z,80
2023-02-23T07:39:48.000Z,80
2023-02-23T07:41:00.000Z,80
2023-02-23T07:42:11.000Z,80.1
2023-02-23T07:43:23.000Z,80.1
2023-02-23T07:44:35.000Z,80.1
2023-02-23T07:45:48.000Z,80.1
2023-02-23T07:47:00.000Z,80.1
2023-02-23T07:48:12.000Z,80.1
2023-02-23T07:49:24.000Z,80.2
2023-02-23T07:50:36.000Z,80.2
2023-02-23T07:51:49.000Z,80.2
2023-02-23T07:53:01.000Z,80.2
2023-02-23T07:54:13.000Z,80.2
2023-02-23T07:55:25.000Z,80.2
2023-02-23T07:56:37.000Z,80.2
2023-02-23T07:58:09.344Z,80.2
2023-02-23T07:59:01.000Z,80.2
2023-02-23T08:00:13.000Z,80.2
2023-02-23T08:01:25.000Z,80.2
2023-02-23T08:02:37.000Z,80.2
2023-02-23T08:03:49.000Z,80.2
2023-02-23T08:05:02.000Z,80.2
2023-02-23T08:06:14.000Z,80.3
2023-02-23T08:07:26.000Z,80.3
2023-02-23T08:08:38.000Z,80.3
2023-02-23T08:10:11.211Z,80.3
2023-02-23T08:11:02.000Z,80.3
2023-02-23T08:12:15.000Z,80.3
2023-02-23T08:13:26.000Z,80.3
2023-02-23T08:14:38.000Z,80.3
2023-02-23T08:15:50.000Z,80.3
2023-02-23T08:17:02.000Z,80.3
2023-02-23T08:18:15.000Z,80.3
2023-02-23T08:19:27.000Z,80.3
2023-02-23T08:20:39.000Z,80.3
2023-02-23T08:21:51.000Z,80.3
2023-02-23T08:23:03.000Z,80.2
2023-02-23T08:24:16.000Z,80.2
2023-02-23T08:25:28.000Z,80.2
2023-02-23T08:26:40.000Z,80.2
2023-02-23T08:27:52.000Z,80.2
2023-02-23T08:29:03.000Z,80.2
2023-02-23T08:30:15.000Z,80.2
2023-02-23T08:31:48.565Z,80.2
2023-02-23T08:32:40.000Z,80.2
2023-02-23T08:33:52.000Z,80.2
2023-02-23T08:35:25.108Z,80.2
2023-02-23T08:36:37.298Z,80.2
2023-02-23T08:37:29.000Z,80.2
2023-02-23T08:38:41.000Z,80.2
2023-02-23T08:39:53.000Z,80.2
2023-02-23T08:41:05.000Z,80.2
2023-02-23T08:42:17.000Z,80.1
2023-02-23T08:43:29.000Z,80.1
2023-02-23T08:44:41.000Z,80.1
2023-02-23T08:45:53.000Z,80
2023-02-23T08:47:05.000Z,80
2023-02-23T08:48:17.000Z,80
2023-02-23T08:49:29.000Z,80
2023-02-23T08:50:42.000Z,80
2023-02-23T08:51:54.000Z,80
2023-02-23T08:53:06.000Z,80
2023-02-23T08:54:18.000Z,80
2023-02-23T08:55:30.000Z,79.9
2023-02-23T08:56:43.000Z,79.9
2023-02-23T08:58:15.649Z,79.9
2023-02-23T08:59:07.000Z,79.9
2023-02-23T09:00:18.000Z,80
2023-02-23T09:01:30.000Z,80
2023-02-23T09:02:42.000Z,80
2023-02-23T09:03:55.000Z,80
2023-02-23T09:05:07.000Z,80.1
2023-02-23T09:06:19.000Z,80.1
2023-02-23T09:07:31.000Z,80.1
2023-02-23T09:08:43.000Z,80.1
2023-02-23T09:09:56.000Z,80.1
2023-02-23T09:11:08.000Z,80.1
2023-02-23T09:12:20.000Z,80.1
2023-02-23T09:13:32.000Z,80.1
2023-02-23T09:14:44.000Z,80.1
2023-02-23T09:15:55.000Z,80.2
2023-02-23T09:17:08.000Z,80.2
2023-02-23T09:18:20.000Z,80.2
2023-02-23T09:19:32.000Z,80.2
2023-02-23T09:20:44.000Z,80.2
2023-02-23T09:21:56.000Z,80.2
2023-02-23T09:23:09.000Z,80.2
2023-02-23T09:24:21.000Z,80.2
2023-02-23T09:25:33.000Z,80.3
2023-02-23T09:26:45.000Z,80.3
2023-02-23T09:27:57.000Z,80.3
2023-02-23T09:29:10.000Z,80.3
2023-02-23T09:30:22.000Z,80.3
2023-02-23T09:31:33.000Z,80.3
2023-02-23T09:32:45.000Z,80.2
2023-02-23T09:33:57.000Z,80.2
2023-02-23T09:35:09.000Z,80.2
2023-02-23T09:36:22.000Z,80.2
2023-02-23T09:37:34.000Z,80.2
2023-02-23T09:38:46.000Z,80.2
2023-02-23T09:39:58.000Z,80.2
2023-02-23T09:41:10.000Z,80.3
2023-02-23T09:42:23.000Z,80.3
2023-02-23T09:43:35.000Z,80.3
2023-02-23T09:44:47.000Z,80.3
2023-02-23T09:45:59.000Z,80.3
2023-02-23T09:47:10.000Z,80.5
2023-02-23T09:48:22.000Z,80.5
2023-02-23T09:49:35.000Z,80.5
2023-02-23T09:50:47.000Z,80.5
2023-02-23T09:51:59.000Z,80.5
2023-02-23T09:53:11.000Z,80.4
2023-02-23T09:54:23.000Z,80.3
2023-02-23T09:55:36.000Z,80.3
2023-02-23T09:56:48.000Z,80.3
2023-02-23T09:58:00.000Z,80.4
2023-02-23T09:59:12.000Z,80.4
2023-02-23T10:00:24.000Z,80.4
2023-02-23T10:01:37.000Z,80.4
2023-02-23T10:02:48.000Z,80.4
2023-02-23T10:04:00.000Z,80.4
2023-02-23T10:05:12.000Z,80.4
2023-02-23T10:06:24.000Z,80.4
2023-02-23T10:07:36.000Z,80.4
2023-02-23T10:08:49.000Z,80.4
2023-02-23T10:10:01.000Z,80.4
2023-02-23T10:11:13.000Z,80.4
2023-02-23T10:12:25.000Z,80.4
2023-02-23T10:13:37.000Z,80.4
2023-02-23T10:14:50.000Z,80.4
2023-02-23T10:16:02.000Z,80.4
2023-02-23T10:17:14.000Z,80.4
2023-02-23T10:18:25.000Z,80.5
2023-02-23T10:19:37.000Z,80.5
2023-02-23T10:20:49.000Z,80.5
2023-02-23T10:22:02.000Z,80.5
2023-02-23T10:23:14.000Z,80.6
2023-02-23T10:24:26.000Z,80.5
2023-02-23T10:25:38.000Z,80.5
2023-02-23T10:26:50.000Z,80.5
2023-02-23T10:28:03.000Z,80.5
2023-02-23T10:29:15.000Z,80.5
2023-02-23T10:30:27.000Z,80.5
2023-02-23T10:31:39.000Z,80.5
2023-02-23T10:32:51.000Z,80.5
2023-02-23T10:34:03.000Z,80.3
2023-02-23T10:35:15.000Z,80.3
2023-02-23T10:36:27.000Z,80.2
2023-02-23T10:37:39.000Z,80.2
2023-02-23T10:38:51.000Z,80.1
2023-02-23T10:40:03.000Z,80.1
2023-02-23T10:41:16.000Z,80.1
2023-02-23T10:42:28.000Z,80.1
2023-02-23T10:43:40.000Z,80.2
2023-02-23T10:44:52.000Z,80.1
2023-02-23T10:46:04.000Z,80.1
2023-02-23T10:47:17.000Z,80.1
2023-02-23T10:48:29.000Z,80.1
2023-02-23T10:49:40.000Z,80.1
2023-02-23T10:50:52.000Z,80.1
2023-02-23T10:52:04.000Z,80.1
2023-02-23T10:53:16.000Z,80.1
2023-02-23T10:54:29.000Z,80.2
2023-02-23T10:55:41.000Z,80.2
2023-02-23T10:56:53.000Z,80.2
2023-02-23T10:58:05.000Z,80.2
2023-02-23T10:59:17.000Z,80.3
2023-02-23T11:00:30.000Z,80.3
2023-02-23T11:01:42.000Z,80.3
2023-02-23T11:02:54.000Z,80.4
2023-02-23T11:04:06.000Z,80.4
2023-02-23T11:05:17.000Z,80.4
2023-02-23T11:06:30.000Z,80.4
2023-02-23T11:07:42.000Z,80.4
2023-02-23T11:08:54.000Z,80.4
2023-02-23T11:10:06.000Z,80.4
2023-02-23T11:11:18.000Z,80.4
2023-02-23T11:12:29.000Z,80.4
2023-02-23T11:13:42.000Z,80.4
2023-02-23T11:14:54.000Z,80.3
2023-02-23T11:16:06.000Z,80.2
2023-02-23T11:17:18.000Z,80.2
2023-02-23T11:18:30.000Z,80.2
2023-02-23T11:19:43.000Z,80.2
2023-02-23T11:20:55.000Z,80.2
2023-02-23T11:22:07.000Z,80.2
2023-02-23T11:23:19.000Z,80.2
2023-02-23T11:24:31.000Z,80.2
2023-02-23T11:25:43.000Z,80.2
2023-02-23T11:26:56.000Z,80.2
2023-02-23T11:28:07.000Z,80.2
2023-02-23T11:29:19.000Z,80.3
2023-02-23T11:30:31.000Z,80.3
2023-02-23T11:31:43.000Z,80.3
2023-02-23T11:32:56.000Z,80.3
2023-02-23T11:34:08.000Z,80.4
2023-02-23T11:35:20.000Z,80.4
2023-02-23T11:36:32.000Z,80.5
2023-02-23T11:37:44.000Z,80.5
2023-02-23T11:38:57.000Z,80.5
2023-02-23T11:40:09.000Z,80.5
2023-02-23T11:41:21.000Z,80.5
2023-02-23T11:42:33.000Z,80.5
2023-02-23T11:43:44.000Z,80.5
2023-02-23T11:44:56.000Z,80.5
2023-02-23T11:46:09.000Z,80.5
2023-02-23T11:47:21.000Z,80.5
2023-02-23T11:48:33.000Z,80.6
2023-02-23T11:49:45.000Z,80.6
2023-02-23T11:50:57.000Z,80.7
2023-02-23T11:52:10.000Z,80.7
2023-02-23T11:53:22.000Z,80.7
2023-02-23T11:54:34.000Z,80.7
2023-02-23T11:55:46.000Z,80.7
2023-02-23T11:56:58.000Z,80.6
2023-02-23T11:58:10.000Z,80.5
2023-02-23T11:59:22.000Z,80.5
2023-02-23T12:00:34.000Z,80.5
2023-02-23T12:01:46.000Z,80.4
2023-02-23T12:02:58.000Z,80.4
2023-02-23T12:04:10.000Z,80.3
2023-02-23T12:05:23.000Z,80.3
2023-02-23T12:06:35.000Z,80.3
2023-02-23T12:07:47.000Z,80.3
2023-02-23T12:08:59.000Z,80.3
2023-02-23T12:10:11.000Z,80.3
2023-02-23T12:11:24.000Z,80.3
2023-02-23T12:12:36.000Z,80.3
2023-02-23T12:13:48.000Z,80.4
2023-02-23T12:14:59.000Z,80.4
2023-02-23T12:16:11.000Z,80.4
2023-02-23T12:17:23.000Z,80.5
2023-02-23T12:18:36.000Z,80.5
2023-02-23T12:19:48.000Z,80.5
2023-02-23T12:21:00.000Z,80.5
2023-02-23T12:22:12.000Z,80.5
2023-02-23T12:23:24.000Z,80.6
2023-02-23T12:24:37.000Z,80.6
2023-02-23T12:25:49.000Z,80.6
2023-02-23T12:27:01.000Z,80.6
2023-02-23T12:28:13.000Z,80.6
2023-02-23T12:29:25.000Z,80.6
2023-02-23T12:30:37.000Z,80.7
2023-02-23T12:31:49.000Z,80.7
2023-02-23T12:33:01.000Z,80.7
2023-02-23T12:34:13.000Z,80.8
2023-02-23T12:35:25.000Z,80.8
2023-02-23T12:36:37.000Z,80.8
2023-02-23T12:37:50.000Z,80.9
2023-02-23T12:39:02.000Z,80.9
2023-02-23T12:40:14.000Z,80.9
2023-02-23T12:41:26.000Z,81
2023-02-23T12:42:38.000Z,81
2023-02-23T12:43:51.000Z,81.1
2023-02-23T12:45:03.000Z,81.1
2023-02-23T12:46:14.000Z,81.1
2023-02-23T12:47:26.000Z,81.1
2023-02-23T12:48:38.000Z,81.1
2023-02-23T12:49:50.000Z,81.1
2023-02-23T12:51:03.000Z,81.1
2023-02-23T12:52:15.000Z,81.1
2023-02-23T12:53:27.000Z,81.1
2023-02-23T12:54:39.000Z,81.3
2023-02-23T12:55:51.000Z,81.1
2023-02-23T12:57:24.692Z,81.3
2023-02-23T12:58:16.000Z,81.3
2023-02-23T12:59:28.000Z,81.1
2023-02-23T13:00:40.000Z,81.3
2023-02-23T13:01:51.000Z,81.3
2023-02-23T13:03:04.000Z,81.3
2023-02-23T13:04:16.000Z,81.3
2023-02-23T13:05:28.000Z,81.3
2023-02-23T13:06:40.000Z,81.3
2023-02-23T13:07:52.000Z,81.3
2023-02-23T13:09:04.000Z,81.3
2023-02-23T13:10:17.000Z,81.3
2023-02-23T13:11:29.000Z,81.4
2023-02-23T13:12:41.000Z,81.3
2023-02-23T13:13:53.000Z,81.4
2023-02-23T13:15:05.000Z,81.4
2023-02-23T13:16:18.000Z,81.4
2023-02-23T13:17:29.000Z,81.4
2023-02-23T13:18:41.000Z,81.4
2023-02-23T13:19:53.645Z,81.4
2023-02-23T13:21:05.000Z,81.4
2023-02-23T13:22:18.000Z,81.3
2023-02-23T13:23:30.000Z,81.3
2023-02-23T13:24:42.000Z,81.4
2023-02-23T13:25:54.000Z,81.4
2023-02-23T13:27:06.000Z,81.4
2023-02-23T13:28:18.000Z,81.4
2023-02-23T13:29:31.000Z,81.4
2023-02-23T13:30:43.000Z,81.4
2023-02-23T13:31:55.000Z,81.4
2023-02-23T13:33:06.000Z,81.4
2023-02-23T13:34:18.000Z,81.4
2023-02-23T13:35:31.000Z,81.4
2023-02-23T13:36:43.000Z,81.4
2023-02-23T13:37:55.000Z,81.4
2023-02-23T13:39:07.000Z,81.4
2023-02-23T13:40:19.000Z,81.4
2023-02-23T13:41:31.000Z,81.5
2023-02-23T13:42:44.000Z,81.5
2023-02-23T13:43:56.000Z,81.5
2023-02-23T13:45:08.000Z,81.5
2023-02-23T13:46:20.000Z,81.5
2023-02-23T13:47:32.000Z,81.5
2023-02-23T13:48:44.000Z,81.5
2023-02-23T13:49:56.000Z,81.5
2023-02-23T13:51:08.000Z,81.5
2023-02-23T13:52:20.000Z,81.5
2023-02-23T13:53:32.000Z,81.5
2023-02-23T13:54:45.000Z,81.4
2023-02-23T13:55:57.000Z,81.4
2023-02-23T13:57:09.000Z,81.5
2023-02-23T13:58:21.000Z,81.5
2023-02-23T13:59:33.000Z,81.5
2023-02-23T14:00:45.000Z,81.5
2023-02-23T14:01:58.000Z,81.5
2023-02-23T14:03:10.000Z,81.5
2023-02-23T14:04:21.000Z,81.5
2023-02-23T14:05:33.000Z,81.5
2023-02-23T14:06:45.000Z,81.6
2023-02-23T14:07:58.000Z,81.6
2023-02-23T14:09:10.000Z,81.6
2023-02-23T14:10:22.000Z,81.6
2023-02-23T14:11:34.000Z,81.6
2023-02-23T14:12:46.000Z,81.6
2023-02-23T14:13:59.000Z,81.6
2023-02-23T14:15:11.000Z,81.6
2023-02-23T14:16:23.000Z,81.6
2023-02-23T14:17:35.000Z,81.6
2023-02-23T14:18:47.000Z,81.6
2023-02-23T14:19:58.000Z,81.6
2023-02-23T14:21:11.000Z,81.6
2023-02-23T14:22:23.000Z,81.6
2023-02-23T14:23:35.000Z,81.6
2023-02-23T14:24:47.000Z,81.6
2023-02-23T14:25:59.000Z,81.7
2023-02-23T14:27:12.000Z,81.6
2023-02-23T14:28:24.000Z,81.7
2023-02-23T14:29:36.000Z,81.7
2023-02-23T14:30:48.000Z,81.7
2023-02-23T14:32:00.000Z,81.7
2023-02-23T14:33:13.000Z,81.7
2023-02-23T14:34:25.000Z,81.7
2023-02-23T14:35:36.000Z,81.8
2023-02-23T14:36:48.000Z,81.8
2023-02-23T14:38:00.000Z,81.8
2023-02-23T14:39:12.000Z,81.8
2023-02-23T14:40:25.000Z,81.8
2023-02-23T14:41:37.000Z,81.8
2023-02-23T14:42:49.000Z,81.9
2023-02-23T14:44:01.000Z,81.8
2023-02-23T14:45:13.000Z,81.9
2023-02-23T14:46:26.000Z,81.8
2023-02-23T14:47:38.000Z,81.8
2023-02-23T14:48:50.000Z,81.9
2023-02-23T14:50:02.000Z,81.8
2023-02-23T14:51:13.000Z,81.9
2023-02-23T14:52:26.000Z,81.9
2023-02-23T14:53:38.000Z,81.8
2023-02-23T14:54:50.000Z,81.9
2023-02-23T14:56:23.245Z,81.9
2023-02-23T14:57:14.000Z,81.9
2023-02-23T14:58:47.611Z,81.9
2023-02-23T14:59:39.000Z,81.9
2023-02-23T15:00:51.000Z,81.9
2023-02-23T15:02:03.000Z,81.9
2023-02-23T15:03:15.000Z,81.9
2023-02-23T15:04:27.000Z,81.9
2023-02-23T15:05:40.000Z,81.9
2023-02-23T15:06:51.000Z,81.9
2023-02-23T15:08:03.000Z,81.9
2023-02-23T15:09:15.000Z,81.9
2023-02-23T15:10:27.000Z,81.8
2023-02-23T15:11:39.000Z,81.9
2023-02-23T15:12:52.000Z,81.9
2023-02-23T15:14:03.000Z,81.9
2023-02-23T15:15:15.000Z,81.8
2023-02-23T15:16:27.000Z,81.9
2023-02-23T15:17:39.000Z,81.9
2023-02-23T15:18:52.000Z,81.9
2023-02-23T15:20:04.000Z,81.9
2023-02-23T15:21:16.000Z,81.9
2023-02-23T15:22:28.000Z,81.9
2023-02-23T15:23:40.000Z,81.9
2023-02-23T15:24:53.000Z,81.9
2023-02-23T15:26:05.000Z,81.9
2023-02-23T15:27:17.000Z,81.9
2023-02-23T15:28:29.000Z,81.9
2023-02-23T15:29:40.000Z,81.9
2023-02-23T15:31:13.699Z,81.8
2023-02-23T15:32:05.000Z,81.8
2023-02-23T15:33:17.000Z,81.9
2023-02-23T15:34:29.000Z,81.9
2023-02-23T15:35:41.000Z,81.8
2023-02-23T15:36:53.000Z,81.8
2023-02-23T15:38:06.000Z,81.9
2023-02-23T15:39:18.000Z,81.9
2023-02-23T15:40:30.000Z,81.9
2023-02-23T15:41:42.000Z,81.9
2023-02-23T15:42:54.000Z,81.9
2023-02-23T15:44:07.000Z,81.9
2023-02-23T15:45:18.000Z,81.9
2023-02-23T15:46:30.000Z,81.9
2023-02-23T15:47:42.000Z,81.9
2023-02-23T15:48:54.000Z,81.9
2023-02-23T15:50:06.000Z,81.9
2023-02-23T15:51:19.000Z,81.9
2023-02-23T15:52:31.000Z,82
2023-02-23T15:53:43.000Z,82
2023-02-23T15:54:55.000Z,82
2023-02-23T15:56:07.000Z,82
2023-02-23T15:57:20.000Z,82
2023-02-23T15:58:32.000Z,82
2023-02-23T15:59:44.000Z,82
2023-02-23T16:00:56.000Z,82
2023-02-23T16:02:07.000Z,82
2023-02-23T16:03:20.000Z,82
2023-02-23T16:04:32.000Z,82